Aktuell METAR/TAF ESNU/UME

192320Z AUTO 00000KT 2000 NCD 11/09 Q1012=

192330Z 2000/2009 VRB03KT CAVOK=
Källa: Luftfartsverket (aro.lfv.se)